Time;durP1;ratioP1;P1;durP2;ratioP2;P2;SDS_P1;SDS_P2;PMS_P1;PMS_P2;Temp;Humidity;BMP_temperature;BMP_pressure;BME280_temperature;BME280_humidity;BME280_pressure;Samples;Min_cycle;Max_cycle;Signal;HPM_P1;HPM_P2
2022/10/29 00:01:58;;;;;;;26.87;14.15;;;;;;;12.96;84.67;101199.82;1651836;84;21040;-82
2022/10/29 00:04:44;;;;;;;26.87;13.78;;;;;;;12.96;84.65;101201.56;1662611;84;21016;-82
2022/10/29 00:07:29;;;;;;;18.87;14.45;;;;;;;12.97;84.67;101196.78;1664315;84;21025;-82
2022/10/29 00:10:14;;;;;;;22.40;13.72;;;;;;;12.95;84.65;101185.13;1662907;84;21059;-82
2022/10/29 00:13:02;;;;;;;17.40;14.38;;;;;;;12.94;84.64;101192.50;1658996;84;21076;-82
2022/10/29 00:15:47;;;;;;;21.15;14.07;;;;;;;12.94;84.65;101188.61;1646712;84;21112;-82
2022/10/29 00:18:32;;;;;;;20.70;14.75;;;;;;;12.93;84.66;101190.34;1654556;84;230897;-82
2022/10/29 00:21:23;;;;;;;18.98;13.20;;;;;;;12.94;84.70;101187.30;1673041;84;21059;-82
2022/10/29 00:24:09;;;;;;;18.60;12.75;;;;;;;12.95;84.73;101190.76;1663089;84;20980;-82
2022/10/29 00:26:54;;;;;;;;;;;;;;;12.94;84.71;101192.50;1662695;84;21096;-82
2022/10/29 00:29:39;;;;;;;20.27;12.35;;;;;;;12.95;84.82;101184.27;1657414;84;20231;-82
2022/10/29 00:32:24;;;;;;;19.50;13.05;;;;;;;12.97;84.77;101184.66;1659177;84;21094;-82
2022/10/29 00:35:09;;;;;;;25.70;13.28;;;;;;;12.98;84.77;101186.37;1649885;84;21541;-82
2022/10/29 00:37:54;;;;;;;19.05;13.13;;;;;;;13.00;84.76;101186.34;1653165;84;21108;-82
2022/10/29 00:40:39;;;;;;;22.52;12.88;;;;;;;13.01;84.77;101180.23;1663340;84;21408;-82
2022/10/29 00:43:26;;;;;;;17.23;12.53;;;;;;;13.01;84.76;101173.75;1662986;84;21344;-82
2022/10/29 00:46:28;;;;;;;17.45;13.22;;;;;;;13.02;84.74;101171.12;1649289;84;21385;-82
2022/10/29 00:49:14;;;;;;;19.70;12.60;;;;;;;13.02;84.74;101169.83;1656575;84;21037;-82
2022/10/29 00:52:04;;;;;;;19.02;13.65;;;;;;;13.03;84.77;101171.55;1658211;84;21101;-82
2022/10/29 00:54:50;;;;;;;24.12;12.93;;;;;;;13.04;84.76;101176.30;1665499;84;21091;-82
2022/10/29 00:57:39;;;;;;;19.80;13.88;;;;;;;13.04;84.79;101173.26;1658329;84;21583;-82
2022/10/29 01:00:24;;;;;;;16.57;11.80;;;;;;;13.04;84.78;101167.20;1632425;86;21077;-82
2022/10/29 01:03:10;;;;;;;18.82;10.93;;;;;;;13.05;84.80;101177.56;1658086;85;21120;-82
2022/10/29 01:05:56;;;;;;;17.48;11.65;;;;;;;13.06;84.80;101175.39;1666069;85;21117;-82
2022/10/29 01:08:40;;;;;;;16.57;10.95;;;;;;;13.07;84.83;101187.48;1666880;85;21768;-82
2022/10/29 01:11:52;;;;;;;18.95;10.00;;;;;;;13.07;84.84;101181.44;1664459;84;21090;-82
2022/10/29 01:14:51;;;;;;;17.30;10.20;;;;;;;13.07;84.82;101186.19;1647665;84;21138;-82
2022/10/29 01:18:09;;;;;;;14.95;9.18;;;;;;;13.07;84.84;101193.97;1647562;85;21056;-82
2022/10/29 01:21:24;;;;;;;16.57;9.65;;;;;;;13.08;84.87;101187.90;1667281;84;21068;-82
2022/10/29 01:24:35;;;;;;;18.60;9.45;;;;;;;13.11;84.89;101185.70;1630193;84;21108;-82
2022/10/29 01:27:57;;;;;;;13.28;8.98;;;;;;;13.13;84.94;101185.23;1651856;85;21136;-82
2022/10/29 01:31:18;;;;;;;14.30;9.03;;;;;;;13.14;84.94;101180.00;1648713;85;21339;-82
2022/10/29 01:34:20;;;;;;;16.73;8.73;;;;;;;13.18;84.95;101178.25;1638523;85;21592;-82
2022/10/29 01:37:19;;;;;;;14.23;8.53;;;;;;;13.20;84.98;101168.25;1637136;85;21465;-82
2022/10/29 01:40:15;;;;;;;12.05;9.00;;;;;;;13.23;84.94;101172.53;1647485;85;21112;-82
2022/10/29 01:43:29;;;;;;;9.83;8.38;;;;;;;13.25;84.96;101169.02;1644794;84;21409;-82
2022/10/29 01:46:25;;;;;;;12.43;8.45;;;;;;;13.26;84.97;101168.58;1662953;84;21509;-82
2022/10/29 01:49:14;;;;;;;12.90;8.50;;;;;;;13.28;84.97;101183.70;1661565;85;21492;-82
2022/10/29 01:52:02;;;;;;;11.08;8.43;;;;;;;13.30;84.98;101187.56;1651400;85;21505;-82
2022/10/29 01:54:47;;;;;;;18.90;9.55;;;;;;;13.30;84.99;101185.83;1643908;85;21116;-82
2022/10/29 01:57:38;;;;;;;10.75;8.75;;;;;;;13.32;84.99;101166.31;1643239;85;21049;-82
2022/10/29 02:00:23;;;;;;;13.65;8.88;;;;;;;13.32;85.00;101158.08;1648769;85;21124;-82
2022/10/29 02:03:34;;;;;;;14.35;8.58;;;;;;;13.33;84.99;101165.43;1651013;85;21069;-82
2022/10/29 02:07:01;;;;;;;16.73;9.58;;;;;;;13.34;85.01;101165.84;1651761;85;21485;-82
2022/10/29 02:10:12;;;;;;;14.23;8.28;;;;;;;13.35;85.02;101165.81;1634865;85;21088;-82
2022/10/29 02:12:58;;;;;;;11.57;8.60;;;;;;;13.35;85.02;101161.06;1647001;85;22293;-82
2022/10/29 02:15:47;;;;;;;21.77;10.20;;;;;;;13.33;84.98;101160.23;1653054;85;22075;-82
2022/10/29 02:18:45;;;;;;;15.08;9.23;;;;;;;13.32;85.00;101161.98;1634333;85;21073;-82
2022/10/29 02:21:31;;;;;;;11.70;8.63;;;;;;;13.32;85.01;101166.31;1659117;85;21492;-82
2022/10/29 02:24:16;;;;;;;14.55;8.73;;;;;;;13.29;84.99;101168.97;1654659;85;21143;-82
2022/10/29 02:27:01;;;;;;;14.05;8.30;;;;;;;13.28;85.03;101170.70;1667618;84;21493;-82
2022/10/29 02:29:46;;;;;;;13.88;7.80;;;;;;;13.28;85.03;101173.30;1654396;83;21521;-82
2022/10/29 02:32:31;;;;;;;13.05;8.25;;;;;;;13.27;85.03;101174.63;1662591;85;21093;-82
2022/10/29 02:35:17;;;;;;;15.15;8.75;;;;;;;13.25;85.03;101175.95;1671127;85;21045;-82
2022/10/29 02:38:02;;;;;;;11.50;8.43;;;;;;;13.23;85.08;101179.87;1540878;84;5001952;-82
2022/10/29 02:40:47;;;;;;;13.53;9.00;;;;;;;13.20;85.02;101183.83;1650229;85;21623;-82
2022/10/29 02:43:32;;;;;;;12.95;8.33;;;;;;;13.18;85.05;101175.20;1651706;83;21065;-82
2022/10/29 02:46:22;;;;;;;16.77;9.38;;;;;;;13.18;85.10;101175.20;1659940;84;21027;-82
2022/10/29 02:49:07;;;;;;;10.85;7.95;;;;;;;13.17;85.08;101172.20;1648745;85;21066;-82
2022/10/29 02:51:53;;;;;;;12.10;8.43;;;;;;;13.15;85.09;101171.77;1669106;85;21056;-82
2022/10/29 02:54:38;;;;;;;11.48;7.42;;;;;;;13.13;85.08;101171.80;1648689;85;20993;-82
2022/10/29 02:57:23;;;;;;;15.68;8.60;;;;;;;13.11;85.08;101173.56;1647078;85;21461;-82
2022/10/29 03:00:10;;;;;;;15.05;8.13;;;;;;;13.10;85.06;101183.98;1649638;84;21085;-82
2022/10/29 03:02:54;;;;;;;;;;;;;;;13.07;85.06;101191.82;1661729;85;21100;-82
2022/10/29 03:05:39;;;;;;;11.05;7.50;;;;;;;13.05;85.17;101192.29;1652355;84;20189;-82
2022/10/29 03:08:24;;;;;;;15.58;7.67;;;;;;;13.03;85.12;101191.02;1654370;85;21600;-82
2022/10/29 03:11:09;;;;;;;10.88;7.78;;;;;;;13.03;85.12;101197.50;1665937;85;21071;-82
2022/10/29 03:13:55;;;;;;;8.90;7.05;;;;;;;13.01;85.12;101197.11;1655383;85;21678;-82
2022/10/29 03:16:40;;;;;;;11.18;7.75;;;;;;;13.00;85.14;101193.66;1647188;85;21056;-82
2022/10/29 03:19:25;;;;;;;11.43;7.92;;;;;;;12.98;85.12;101191.56;1639540;85;21090;-82
2022/10/29 03:22:10;;;;;;;12.23;7.72;;;;;;;12.97;85.11;101191.15;1650180;84;21576;-82
2022/10/29 03:24:55;;;;;;;11.50;8.00;;;;;;;12.96;85.11;101188.58;1642139;85;21565;-82
2022/10/29 03:27:42;;;;;;;14.43;7.05;;;;;;;12.94;85.11;101187.30;1631770;86;21821;-82
2022/10/29 03:30:27;;;;;;;;;;;;;;;12.91;85.12;101183.02;1628129;86;21582;-82
2022/10/29 03:33:12;;;;;;;13.40;7.83;;;;;;;12.89;85.19;101192.57;1616992;86;20223;-82
2022/10/29 03:36:00;;;;;;;12.98;7.45;;;;;;;12.86;85.13;101193.06;1624545;86;21120;-82
2022/10/29 03:38:45;;;;;;;10.63;6.80;;;;;;;12.86;85.18;101192.63;1625955;86;21184;-82
2022/10/29 03:41:30;;;;;;;11.10;7.03;;;;;;;12.84;85.15;101200.88;1624187;87;21545;-82
2022/10/29 03:44:15;;;;;;;15.68;8.28;;;;;;;12.82;85.13;101191.39;1628154;86;21140;-82
2022/10/29 03:47:01;;;;;;;13.08;7.15;;;;;;;12.82;85.17;101201.77;1624808;86;21069;-82
2022/10/29 03:49:46;;;;;;;10.10;7.15;;;;;;;12.80;85.21;101203.09;1617156;86;21580;-82
2022/10/29 03:52:31;;;;;;;12.30;6.75;;;;;;;12.79;85.21;101200.09;1619241;87;21073;-82
2022/10/29 03:55:17;;;;;;;12.55;6.53;;;;;;;12.77;85.20;101195.36;1626582;87;21029;-83
2022/10/29 03:58:03;;;;;;;10.50;7.08;;;;;;;12.77;85.25;101197.95;1624868;87;21118;-83
2022/10/29 04:01:03;;;;;;;12.18;6.92;;;;;;;12.78;85.22;101210.05;1629125;86;21113;-82
2022/10/29 04:03:48;;;;;;;14.63;6.83;;;;;;;12.77;85.23;101211.38;1620990;86;21132;-82
2022/10/29 04:06:34;;;;;;;16.50;6.97;;;;;;;12.77;85.27;101212.67;1615756;87;21372;-82
2022/10/29 04:09:19;;;;;;;12.37;6.85;;;;;;;12.77;85.27;101207.48;1623557;87;21109;-82
2022/10/29 04:12:05;;;;;;;12.33;6.92;;;;;;;12.79;85.31;101214.80;1631163;87;21053;-82
2022/10/29 04:14:50;;;;;;;16.55;7.20;;;;;;;12.81;85.35;101215.63;1626395;86;21722;-82
2022/10/29 04:17:35;;;;;;;9.35;6.03;;;;;;;12.82;85.36;101214.75;1621311;86;21128;-82
2022/10/29 04:20:20;;;;;;;13.35;6.25;;;;;;;12.84;85.34;101218.19;1625127;86;21118;-82
2022/10/29 04:23:06;;;;;;;16.25;6.87;;;;;;;12.85;85.34;101223.34;1622930;87;21061;-82
2022/10/29 04:25:57;;;;;;;15.38;6.78;;;;;;;12.85;85.35;101227.24;1653170;85;21080;-82
2022/10/29 04:28:42;;;;;;;9.15;6.83;;;;;;;12.88;85.37;101232.83;1662531;84;21093;-82
2022/10/29 04:31:27;;;;;;;12.70;6.35;;;;;;;12.89;85.36;101232.80;1664895;84;21539;-82
2022/10/29 04:34:13;;;;;;;12.60;7.72;;;;;;;12.89;85.37;101232.80;1646593;85;21695;-82
2022/10/29 04:36:58;;;;;;;18.30;7.25;;;;;;;12.89;85.37;101226.31;1664689;84;21099;-82
2022/10/29 04:39:43;;;;;;;12.70;6.70;;;;;;;12.90;85.40;101227.17;1654661;84;21128;-82
2022/10/29 04:42:28;;;;;;;12.73;6.90;;;;;;;12.89;85.40;101225.02;1649080;85;21197;-82
2022/10/29 04:45:13;;;;;;;8.88;6.10;;;;;;;12.91;85.41;101221.09;1669545;85;21079;-82
2022/10/29 04:48:04;;;;;;;11.15;6.65;;;;;;;12.91;85.42;101223.70;1656270;84;21089;-82
2022/10/29 04:50:49;;;;;;;11.15;6.30;;;;;;;12.91;85.45;101230.19;1657330;84;21084;-82
2022/10/29 04:53:34;;;;;;;14.73;7.05;;;;;;;12.90;85.45;101232.36;1661561;85;21541;-82
2022/10/29 04:56:19;;;;;;;18.17;6.92;;;;;;;12.90;85.45;101243.60;1649277;85;21518;-82
2022/10/29 04:59:04;;;;;;;14.38;6.22;;;;;;;12.89;85.45;101238.00;1659043;85;20998;-82
2022/10/29 05:01:49;;;;;;;11.55;6.83;;;;;;;12.90;85.48;101249.23;1656847;84;21536;-82
2022/10/29 05:04:35;;;;;;;12.47;6.42;;;;;;;12.89;85.49;101241.03;1649171;85;21042;-82
2022/10/29 05:07:20;;;;;;;15.05;7.22;;;;;;;12.89;85.52;101241.03;1662420;84;21072;-82
2022/10/29 05:10:05;;;;;;;10.32;6.28;;;;;;;12.88;85.54;101240.17;1662011;85;21506;-83
2022/10/29 05:12:59;;;;;;;14.28;5.92;;;;;;;12.90;85.52;101246.64;1660281;84;21072;-83
2022/10/29 05:15:50;;;;;;;11.15;6.75;;;;;;;12.89;85.55;101243.19;1649160;85;21044;-83
2022/10/29 05:18:36;;;;;;;14.70;7.15;;;;;;;12.89;85.56;101251.41;1665199;84;21582;-83
2022/10/29 05:21:21;;;;;;;13.70;6.80;;;;;;;12.89;85.58;101251.41;1617098;87;21097;-83
2022/10/29 05:24:06;;;;;;;12.58;6.65;;;;;;;12.89;85.60;101252.27;1654663;85;21521;-83
2022/10/29 05:26:51;;;;;;;18.25;7.37;;;;;;;12.89;85.63;101257.46;1650606;85;21362;-82
2022/10/29 05:29:37;;;;;;;13.98;6.42;;;;;;;12.90;85.67;101264.81;1655586;85;319768;-82
2022/10/29 05:32:21;;;;;;;18.65;6.58;;;;;;;12.91;85.68;101262.62;1658117;84;21176;-82
2022/10/29 05:35:07;;;;;;;14.98;7.42;;;;;;;12.93;85.71;101259.57;1654506;85;21079;-82
2022/10/29 05:37:56;;;;;;;11.97;6.60;;;;;;;12.94;85.73;101263.87;1640220;85;21489;-82
2022/10/29 05:40:43;;;;;;;12.33;6.90;;;;;;;12.96;85.74;101266.02;1646650;85;21100;-82
2022/10/29 05:43:29;;;;;;;13.18;7.00;;;;;;;12.97;85.74;101268.17;1646678;85;21069;-82
2022/10/29 05:46:15;;;;;;;11.93;7.28;;;;;;;12.97;85.76;101270.33;1649505;85;21110;-82
2022/10/29 05:49:00;;;;;;;15.18;7.45;;;;;;;12.98;85.79;101275.08;1639411;84;21132;-82
2022/10/29 05:51:45;;;;;;;8.75;6.60;;;;;;;12.99;85.81;101267.27;1638161;84;21069;-82
2022/10/29 05:54:30;;;;;;;14.20;7.78;;;;;;;13.01;85.82;101271.11;1638952;85;21065;-82
2022/10/29 05:57:16;;;;;;;13.68;7.25;;;;;;;13.01;85.84;101268.06;1638196;85;21057;-82
2022/10/29 06:00:01;;;;;;;11.60;7.58;;;;;;;13.04;85.86;101269.32;1650588;85;21081;-82
2022/10/29 06:02:46;;;;;;;12.95;8.00;;;;;;;13.05;85.84;101274.92;1657225;84;21478;-82
2022/10/29 06:05:32;;;;;;;14.93;7.75;;;;;;;13.07;85.90;101269.71;1645663;85;21149;-82
2022/10/29 06:08:18;;;;;;;21.07;7.90;;;;;;;13.10;85.92;101274.41;1643564;84;21108;-82
2022/10/29 06:11:03;;;;;;;12.65;7.80;;;;;;;13.13;85.95;101271.77;1651194;85;20987;-82
2022/10/29 06:13:48;;;;;;;14.00;7.87;;;;;;;13.15;85.99;101275.20;1636549;85;21368;-82
2022/10/29 06:16:33;;;;;;;13.60;7.15;;;;;;;13.19;85.99;101279.50;1650413;85;21068;-82
2022/10/29 06:19:18;;;;;;;11.95;7.22;;;;;;;13.22;85.99;101283.34;1650677;85;21148;-82
2022/10/29 06:22:04;;;;;;;17.60;8.08;;;;;;;13.26;86.01;101285.45;1644238;84;21072;-82
2022/10/29 06:24:49;;;;;;;11.88;7.58;;;;;;;13.29;86.01;101285.41;1644858;84;21070;-82
2022/10/29 06:27:34;;;;;;;10.75;6.80;;;;;;;13.30;86.03;101295.35;1651750;85;21146;-82
2022/10/29 06:30:19;;;;;;;18.35;8.15;;;;;;;13.32;86.07;101293.59;1653204;85;21170;-82
2022/10/29 06:33:04;;;;;;;12.37;7.42;;;;;;;13.35;86.11;101293.53;1647156;84;21112;-82
2022/10/29 06:35:50;;;;;;;14.05;7.72;;;;;;;13.38;86.14;101294.78;1648812;85;20989;-82
2022/10/29 06:38:34;;;;;;;18.30;8.43;;;;;;;13.40;86.16;101296.48;1656446;84;21109;-82
2022/10/29 06:41:24;;;;;;;17.55;7.67;;;;;;;13.46;86.21;101294.22;1648706;85;21125;-82
2022/10/29 06:44:06;;;;;;;19.20;9.45;;;;;;;13.50;86.24;101296.73;1638800;85;21443;-83
2022/10/29 06:46:51;;;;;;;15.05;8.53;;;;;;;13.56;86.28;101300.50;1639094;84;21659;-83
2022/10/29 06:49:37;;;;;;;23.50;8.58;;;;;;;13.64;86.30;101299.51;1654824;84;21104;-83
2022/10/29 06:52:22;;;;;;;16.73;8.95;;;;;;;13.70;86.30;101300.26;1653099;85;21120;-83
2022/10/29 06:55:08;;;;;;;23.20;8.80;;;;;;;13.78;86.31;101300.98;1654940;84;21579;-83
2022/10/29 06:58:14;;;;;;;22.45;8.10;;;;;;;13.86;86.32;101308.64;1655401;85;21132;-83
2022/10/29 07:01:00;;;;;;;17.40;7.70;;;;;;;13.91;86.31;101309.41;1642094;85;21152;-83
2022/10/29 07:03:45;;;;;;;12.45;7.35;;;;;;;13.93;86.33;101319.34;1641946;85;21057;-83
2022/10/29 07:06:33;;;;;;;16.85;7.85;;;;;;;13.96;86.32;101316.69;1654336;84;21077;-82
2022/10/29 07:09:18;;;;;;;12.68;7.60;;;;;;;13.98;86.35;101314.91;1644072;85;21036;-82
2022/10/29 07:12:03;;;;;;;16.17;7.53;;;;;;;14.00;86.39;101305.78;1660423;85;21056;-82
2022/10/29 07:14:48;;;;;;;17.62;7.95;;;;;;;14.02;86.40;101302.71;1645476;85;21120;-83
2022/10/29 07:17:34;;;;;;;30.32;7.75;;;;;;;14.03;86.44;101304.42;1637478;84;21041;-83
2022/10/29 07:20:19;;;;;;;15.28;8.60;;;;;;;14.07;86.47;101306.05;1649860;84;21075;-83
2022/10/29 07:23:04;;;;;;;12.10;6.95;;;;;;;14.12;86.49;101300.31;1640916;85;21099;-83
2022/10/29 07:25:52;;;;;;;16.62;7.10;;;;;;;14.18;86.52;101307.56;1662510;84;21073;-82
2022/10/29 07:28:37;;;;;;;13.65;8.13;;;;;;;14.24;86.54;101324.79;1641085;85;21148;-82
2022/10/29 07:31:22;;;;;;;12.98;7.42;;;;;;;14.30;86.53;101331.62;1647516;85;21646;-83
2022/10/29 07:34:07;;;;;;;18.10;8.18;;;;;;;14.35;86.51;101321.53;1646439;85;21305;-83
2022/10/29 07:36:52;;;;;;;18.50;7.78;;;;;;;14.39;86.54;101321.88;1649982;84;21053;-83
2022/10/29 07:39:37;;;;;;;12.37;7.28;;;;;;;14.47;86.55;101326.97;1644242;85;21130;-82
2022/10/29 07:42:23;;;;;;;20.77;7.00;;;;;;;14.58;86.60;101329.73;1648243;84;21083;-82
2022/10/29 07:45:09;;;;;;;18.55;7.83;;;;;;;14.69;86.62;101344.27;1632350;85;430045;-82
2022/10/29 07:48:08;;;;;;;16.95;7.45;;;;;;;14.79;86.60;101334.92;1649573;85;21009;-83
2022/10/29 07:50:53;;;;;;;16.77;6.95;;;;;;;14.86;86.60;101325.23;1642268;85;21142;-83
2022/10/29 07:53:38;;;;;;;20.43;7.87;;;;;;;14.93;86.60;101332.46;1630885;86;21136;-83
2022/10/29 07:56:23;;;;;;;11.88;7.20;;;;;;;15.02;86.66;101338.32;1642448;84;21073;-83
2022/10/29 07:59:09;;;;;;;18.35;8.03;;;;;;;15.12;86.67;101345.00;1654345;85;21127;-83
2022/10/29 08:01:54;;;;;;;9.88;6.78;;;;;;;15.20;86.65;101350.89;1638399;85;21048;-83
2022/10/29 08:04:39;;;;;;;18.95;8.55;;;;;;;15.30;86.68;101354.59;1640582;85;21110;-83
2022/10/29 08:07:24;;;;;;;11.20;6.65;;;;;;;15.38;86.65;101351.36;1651900;84;21080;-83
2022/10/29 08:10:09;;;;;;;14.33;7.10;;;;;;;15.48;86.67;101353.70;1645877;85;21100;-83
2022/10/29 08:12:59;;;;;;;11.60;7.30;;;;;;;15.57;86.67;101357.02;1649642;84;21116;-83
2022/10/29 08:15:46;;;;;;;14.53;6.22;;;;;;;15.65;86.62;101349.38;1651502;85;21108;-83
2022/10/29 08:18:31;;;;;;;12.63;6.45;;;;;;;15.78;86.64;101336.89;1644985;85;21033;-83
2022/10/29 08:21:16;;;;;;;13.45;7.58;;;;;;;15.85;86.64;101348.42;1650130;84;21084;-83
2022/10/29 08:24:01;;;;;;;15.45;6.83;;;;;;;15.92;86.61;101349.57;1645570;84;21639;-83
2022/10/29 08:26:46;;;;;;;12.03;6.85;;;;;;;15.96;86.53;101354.67;1659331;84;21720;-82
2022/10/29 08:29:31;;;;;;;16.35;6.70;;;;;;;16.01;86.62;101361.92;1649533;84;21053;-82
2022/10/29 08:32:17;;;;;;;11.65;6.70;;;;;;;16.12;86.69;101354.64;1650813;84;21132;-82
2022/10/29 08:35:02;;;;;;;15.05;6.12;;;;;;;16.19;86.58;101344.44;1647991;85;21124;-82
2022/10/29 08:37:47;;;;;;;12.30;6.75;;;;;;;16.29;86.62;101346.80;1656572;84;21105;-83
2022/10/29 08:40:57;;;;;;;10.98;6.12;;;;;;;16.38;86.52;101352.62;1642000;84;21684;-83
2022/10/29 08:44:00;;;;;;;17.87;6.62;;;;;;;16.44;86.54;101354.20;1649736;84;21352;-83
2022/10/29 08:47:02;;;;;;;16.55;7.08;;;;;;;16.49;86.47;101360.15;1651675;85;20937;-83
2022/10/29 08:50:00;;;;;;;12.55;6.60;;;;;;;16.53;86.46;101353.49;1651046;85;20961;-83
2022/10/29 08:52:47;;;;;;;13.00;6.33;;;;;;;16.58;86.38;101369.48;1646267;85;21268;-83
2022/10/29 08:55:36;;;;;;;;;;;;;;;16.62;86.42;101377.62;1654719;84;21572;-83
2022/10/29 08:58:38;;;;;;;14.80;6.05;;;;;;;16.63;86.17;101368.45;1655555;83;20353;-83
2022/10/29 09:01:23;;;;;;;11.10;6.12;;;;;;;16.67;86.32;101376.59;1646560;85;21116;-83
2022/10/29 09:04:20;;;;;;;11.63;5.20;;;;;;;16.65;86.19;101381.01;1641376;85;22222;-83
2022/10/29 09:07:19;;;;;;;9.88;5.22;;;;;;;16.63;86.17;101380.64;1657614;85;21108;-83
2022/10/29 09:10:30;;;;;;;19.23;5.35;;;;;;;16.63;86.24;101387.17;1653783;84;21087;-83
2022/10/29 09:13:29;;;;;;;11.05;5.03;;;;;;;16.64;86.19;101389.74;1656233;84;21046;-83
2022/10/29 09:16:41;;;;;;;12.20;5.28;;;;;;;16.66;86.17;101380.11;1659613;85;21047;-83
2022/10/29 09:19:55;;;;;;;9.23;5.08;;;;;;;16.67;86.08;101390.95;1655898;85;21085;-83
2022/10/29 09:22:54;;;;;;;15.38;5.10;;;;;;;16.64;85.94;101390.16;1651781;84;21076;-83
2022/10/29 09:26:02;;;;;;;10.93;5.50;;;;;;;16.62;85.79;101394.60;1656373;84;21053;-82
2022/10/29 09:29:20;;;;;;;12.15;4.50;;;;;;;16.63;85.89;101400.23;1661278;84;21064;-82
2022/10/29 09:32:13;;;;;;;8.20;3.55;;;;;;;16.70;85.93;101396.09;1646076;85;20985;-82
2022/10/29 09:35:14;;;;;;;10.45;4.37;;;;;;;16.73;85.79;101397.31;1642430;85;21331;-82
2022/10/29 09:38:04;;;;;;;7.62;4.10;;;;;;;16.74;85.73;101403.39;1645922;85;21112;-82
2022/10/29 09:40:49;;;;;;;6.92;4.45;;;;;;;16.72;85.63;101407.36;1646401;84;21100;-83
2022/10/29 09:43:46;;;;;;;8.13;3.62;;;;;;;16.73;85.63;101415.59;1646611;84;21053;-83
2022/10/29 09:46:51;;;;;;;9.08;3.80;;;;;;;16.72;85.62;101421.72;1644507;85;21117;-83
2022/10/29 09:49:50;;;;;;;9.10;4.45;;;;;;;16.76;85.60;101425.10;1653957;85;21104;-83
2022/10/29 09:52:39;;;;;;;7.58;4.40;;;;;;;16.78;85.49;101424.16;1621422;85;21128;-83
2022/10/29 09:55:40;;;;;;;9.43;3.85;;;;;;;16.81;85.46;101416.69;1645283;84;21137;-83
2022/10/29 09:58:27;;;;;;;10.15;3.77;;;;;;;16.85;85.44;101412.63;1654327;84;21071;-83
2022/10/29 10:01:13;;;;;;;12.07;4.05;;;;;;;16.88;85.37;101413.84;1648773;85;21104;-83
2022/10/29 10:04:05;;;;;;;10.63;3.55;;;;;;;16.88;85.25;101403.40;1642978;85;21168;-83
2022/10/29 10:07:17;;;;;;;5.70;3.27;;;;;;;16.92;85.25;101421.59;1582018;84;5000712;-83
2022/10/29 10:10:07;;;;;;;8.35;3.10;;;;;;;16.96;85.16;101410.16;1637929;84;22012;-83
2022/10/29 10:12:52;;;;;;;8.95;3.17;;;;;;;16.99;85.07;101402.23;1641509;85;21020;-83
2022/10/29 10:15:37;;;;;;;7.87;3.67;;;;;;;17.04;84.99;101401.64;1639693;84;20969;-83
2022/10/29 10:18:32;;;;;;;8.15;3.77;;;;;;;17.06;84.93;101403.30;1642527;85;21483;-83
2022/10/29 10:21:27;;;;;;;12.37;3.30;;;;;;;17.10;84.90;101407.54;1647325;84;20922;-83
2022/10/29 10:24:20;;;;;;;7.62;2.80;;;;;;;17.14;84.70;101401.77;1643429;85;21326;-83
2022/10/29 10:27:27;;;;;;;5.85;3.17;;;;;;;17.14;84.69;101403.08;1645271;85;21446;-83
2022/10/29 10:30:16;;;;;;;6.92;3.50;;;;;;;17.14;84.56;101398.70;1647769;84;20921;-83
2022/10/29 10:33:20;;;;;;;5.97;2.90;;;;;;;17.17;84.52;101393.34;1643153;85;20968;-83
2022/10/29 10:36:07;;;;;;;6.15;3.60;;;;;;;17.19;84.46;101394.16;1649515;84;20914;-83
2022/10/29 10:38:56;;;;;;;6.62;2.95;;;;;;;17.27;84.49;101394.38;1638317;86;21435;-83
2022/10/29 10:41:42;;;;;;;8.65;3.02;;;;;;;17.29;84.37;101406.50;1646879;84;20946;-83
2022/10/29 10:44:28;;;;;;;7.70;2.80;;;;;;;17.32;84.27;101408.16;1653765;84;21517;-83
2022/10/29 10:47:13;;;;;;;7.55;2.95;;;;;;;17.34;84.15;101414.20;1647604;85;21391;-83
2022/10/29 10:50:14;;;;;;;6.97;2.80;;;;;;;17.36;84.14;101398.86;1649621;85;20990;-83
2022/10/29 10:53:03;;;;;;;7.58;3.17;;;;;;;17.36;83.95;101401.48;1646829;85;21068;-83
2022/10/29 10:55:53;;;;;;;5.37;2.22;;;;;;;17.37;83.79;101395.80;1646881;85;21129;-83
2022/10/29 10:58:43;;;;;;;8.43;2.58;;;;;;;17.37;83.73;101394.48;1649860;85;21521;-82
2022/10/29 11:01:38;;;;;;;6.12;2.65;;;;;;;17.34;83.61;101391.97;1648493;84;21351;-82
2022/10/29 11:04:32;;;;;;;9.65;3.72;;;;;;;17.30;83.49;101396.89;1650078;85;21144;-82
2022/10/29 11:07:17;;;;;;;9.30;2.95;;;;;;;17.26;83.43;101401.36;1649157;85;21174;-82
2022/10/29 11:10:06;;;;;;;6.75;2.90;;;;;;;17.27;83.41;101392.61;1647639;85;21108;-82
2022/10/29 11:12:54;;;;;;;6.28;2.47;;;;;;;17.29;83.37;101400.41;1652625;84;21100;-82
2022/10/29 11:15:56;;;;;;;9.08;2.60;;;;;;;17.33;83.33;101402.02;1647828;84;21574;-83
2022/10/29 11:19:06;;;;;;;4.92;2.40;;;;;;;17.37;83.28;101392.73;1653140;84;21040;-83
2022/10/29 11:22:32;;;;;;;6.60;3.12;;;;;;;17.42;83.15;101393.44;1644673;85;21541;-83
2022/10/29 11:25:30;;;;;;;10.15;3.27;;;;;;;17.48;83.10;101396.31;1662668;85;21076;-82
2022/10/29 11:28:42;;;;;;;7.50;2.83;;;;;;;17.51;82.92;101387.92;1649967;84;21064;-82
2022/10/29 11:31:48;;;;;;;17.55;3.20;;;;;;;17.56;82.81;101391.70;1654909;84;21104;-82
2022/10/29 11:34:44;;;;;;;4.67;2.40;;;;;;;17.56;82.67;101389.53;1652352;85;21562;-82
2022/10/29 11:37:55;;;;;;;6.78;2.90;;;;;;;17.56;82.47;101386.92;1641676;85;21144;-82
2022/10/29 11:40:57;;;;;;;7.03;2.50;;;;;;;17.54;82.37;101392.20;1664894;84;21061;-82
2022/10/29 11:43:42;;;;;;;8.40;3.70;;;;;;;17.54;82.33;101392.20;1663076;85;21100;-82
2022/10/29 11:46:47;;;;;;;4.42;3.30;;;;;;;17.58;82.28;101379.42;1644566;84;21091;-82
2022/10/29 11:50:03;;;;;;;6.27;3.43;;;;;;;17.58;82.15;101376.81;1656018;85;21116;-82
2022/10/29 11:53:06;;;;;;;6.20;2.42;;;;;;;17.58;82.04;101376.81;1650532;85;21073;-82
2022/10/29 11:56:07;;;;;;;6.15;2.42;;;;;;;17.58;81.99;101374.64;1653521;85;21276;-82
2022/10/29 11:59:16;;;;;;;5.37;2.22;;;;;;;17.55;81.88;101363.83;1658543;84;38015;-82
2022/10/29 12:02:13;;;;;;;7.75;2.70;;;;;;;17.52;81.80;101371.33;1657624;84;21116;-82
2022/10/29 12:05:30;;;;;;;3.67;2.42;;;;;;;17.49;81.71;101370.57;1650277;85;26966;-82
2022/10/29 12:08:32;;;;;;;6.90;2.98;;;;;;;17.43;81.57;101373.38;1651277;85;21569;-82
2022/10/29 12:11:28;;;;;;;4.08;2.58;;;;;;;17.39;81.53;101377.85;1650436;85;21124;-82
2022/10/29 12:14:32;;;;;;;7.03;2.83;;;;;;;17.37;81.44;101366.59;1654813;84;21549;-82
2022/10/29 12:17:22;;;;;;;7.17;2.70;;;;;;;17.36;81.36;101365.33;1660961;84;21075;-82
2022/10/29 12:20:12;;;;;;;4.67;3.20;;;;;;;17.34;81.27;101372.36;1647440;85;21700;-82
2022/10/29 12:23:11;;;;;;;4.28;2.27;;;;;;;17.35;81.23;101371.46;1651688;85;21095;-82
2022/10/29 12:26:19;;;;;;;6.30;2.45;;;;;;;17.36;81.13;101364.02;1628612;86;21141;-82
2022/10/29 12:29:21;;;;;;;7.97;3.05;;;;;;;17.39;81.04;101370.02;1603277;86;21127;-82
2022/10/29 12:32:14;;;;;;;9.40;2.02;;;;;;;17.40;80.92;101368.25;1656273;84;21518;-82
2022/10/29 12:35:22;;;;;;;6.05;2.50;;;;;;;17.39;80.78;101369.16;1533810;84;5001415;-82
2022/10/29 12:38:15;;;;;;;5.67;2.83;;;;;;;17.36;80.73;101370.56;1654511;84;21552;-82
2022/10/29 12:41:14;;;;;;;4.10;2.15;;;;;;;17.36;80.64;101373.17;1651582;84;21174;-82
2022/10/29 12:44:25;;;;;;;6.58;2.80;;;;;;;17.37;80.59;101375.73;1646933;84;21044;-82
2022/10/29 12:47:40;;;;;;;7.00;2.50;;;;;;;17.37;80.49;101369.20;1653021;84;21126;-82
2022/10/29 12:50:49;;;;;;;3.50;2.60;;;;;;;17.39;80.45;101370.02;1668457;84;21092;-82
2022/10/29 12:54:04;;;;;;;4.05;2.35;;;;;;;17.39;80.29;101366.54;1656884;84;21051;-82
2022/10/29 12:56:50;;;;;;;3.37;2.67;;;;;;;17.35;80.13;101358.39;1656925;84;21125;-82
2022/10/29 12:59:36;;;;;;;5.75;2.02;;;;;;;17.28;80.08;101356.42;1660688;84;21556;-82
2022/10/29 13:02:43;;;;;;;5.60;2.42;;;;;;;17.25;80.04;101372.66;1661173;84;21072;-82
2022/10/29 13:05:42;;;;;;;4.08;2.60;;;;;;;17.23;80.05;101383.61;1657366;84;21493;-82
2022/10/29 13:08:32;;;;;;;7.37;2.33;;;;;;;17.21;79.97;101371.89;1652637;84;21104;-82
2022/10/29 13:11:23;;;;;;;7.28;2.30;;;;;;;17.23;79.92;101360.94;1658399;84;21053;-82